Time;durP1;ratioP1;P1;durP2;ratioP2;P2;SDS_P1;SDS_P2;PMS_P1;PMS_P2;Temp;Humidity;BMP_temperature;BMP_pressure;BME280_temperature;BME280_humidity;BME280_pressure;Samples;Min_cycle;Max_cycle;Signal;HPM_P1;HPM_P2
2023/10/11 00:02:58;;;;;;;16.65;6.93;;;15.10;99.90;;;;;;5030223;28;20069;-47
2023/10/11 00:05:36;;;;;;;12.68;6.68;;;15.10;99.90;;;;;;5029882;28;20026;-52
2023/10/11 00:08:03;;;;;;;13.77;6.88;;;15.10;99.90;;;;;;5030301;28;20037;-44
2023/10/11 00:10:29;;;;;;;15.90;7.18;;;15.10;99.90;;;;;;5029840;28;20013;-45
2023/10/11 00:12:58;;;;;;;11.32;5.93;;;15.10;99.90;;;;;;5029949;28;20033;-52
2023/10/11 00:15:28;;;;;;;14.63;7.43;;;15.10;99.90;;;;;;5029783;28;20422;-46
2023/10/11 00:17:55;;;;;;;20.75;7.10;;;15.00;99.90;;;;;;5029823;28;20042;-50
2023/10/11 00:20:47;;;;;;;14.90;6.68;;;15.00;99.90;;;;;;5029930;28;20030;-49
2023/10/11 00:23:22;;;;;;;14.25;6.97;;;15.00;99.90;;;;;;5029762;28;20045;-52
2023/10/11 00:25:50;;;;;;;10.90;6.13;;;15.00;99.90;;;;;;5030080;28;20024;-54
2023/10/11 00:28:16;;;;;;;14.55;7.05;;;15.00;99.90;;;;;;5029876;28;20033;-48
2023/10/11 00:30:46;;;;;;;14.55;6.78;;;15.00;99.90;;;;;;5029548;28;20069;-54
2023/10/11 00:33:13;;;;;;;14.57;6.60;;;15.00;99.90;;;;;;5029840;28;20132;-47
2023/10/11 00:35:47;;;;;;;12.27;6.40;;;15.00;99.90;;;;;;5029615;28;20188;-52
2023/10/11 00:38:20;;;;;;;14.82;6.85;;;15.00;99.90;;;;;;5029837;28;20388;-50
2023/10/11 00:41:39;;;;;;;14.70;6.90;;;15.00;99.90;;;;;;5029839;28;20053;-48
2023/10/11 00:43:46;;;;;;;13.27;6.45;;;15.00;99.90;;;;;;5026472;28;20124;-50
2023/10/11 00:46:14;;;;;;;16.25;6.38;;;15.00;99.90;;;;;;5029640;28;20044;-48
2023/10/11 00:48:54;;;;;;;17.40;7.35;;;15.00;99.90;;;;;;5028081;28;20044;-46
2023/10/11 00:51:20;;;;;;;13.90;7.25;;;15.10;99.90;;;;;;5033074;28;20504;-49
2023/10/11 00:53:47;;;;;;;17.17;6.60;;;15.10;99.90;;;;;;5032952;28;20025;-51
2023/10/11 00:56:14;;;;;;;12.80;5.78;;;15.10;99.90;;;;;;5033225;28;20025;-52
2023/10/11 00:58:41;;;;;;;14.40;6.95;;;15.10;99.90;;;;;;5032968;28;20063;-51
2023/10/11 01:01:08;;;;;;;12.27;6.55;;;15.20;99.90;;;;;;5031831;28;20025;-47
2023/10/11 01:03:35;;;;;;;16.30;6.90;;;15.20;99.90;;;;;;5031288;28;20079;-57
2023/10/11 01:06:01;;;;;;;17.13;7.90;;;15.20;99.90;;;;;;5032886;28;20030;-51
2023/10/11 01:08:38;;;;;;;15.02;6.93;;;15.20;99.90;;;;;;5032834;28;20025;-46
2023/10/11 01:11:11;;;;;;;14.98;6.97;;;15.20;99.90;;;;;;5032578;28;20079;-45
2023/10/11 01:13:42;;;;;;;14.02;6.53;;;15.20;99.90;;;;;;5032851;28;20029;-44
2023/10/11 01:16:14;;;;;;;16.90;6.88;;;15.20;99.90;;;;;;5032744;28;20024;-44
2023/10/11 01:18:42;;;;;;;10.82;5.70;;;15.20;99.90;;;;;;5032535;28;20072;-55
2023/10/11 01:21:08;;;;;;;14.80;6.40;;;15.20;99.90;;;;;;5032441;28;20075;-51
2023/10/11 01:23:35;;;;;;;14.98;6.13;;;15.30;99.90;;;;;;5032608;28;20030;-54
2023/10/11 01:26:07;;;;;;;15.32;6.25;;;15.30;99.90;;;;;;5032556;28;20022;-53
2023/10/11 01:28:41;;;;;;;15.93;6.05;;;15.30;99.90;;;;;;5032316;28;20171;-53
2023/10/11 01:31:10;;;;;;;17.42;6.95;;;15.20;99.90;;;;;;5032120;28;20120;-47
2023/10/11 01:33:37;;;;;;;12.93;5.63;;;15.20;99.90;;;;;;5030858;28;20384;-45
2023/10/11 01:36:07;;;;;;;10.35;5.95;;;15.30;99.90;;;;;;5032237;28;20052;-45
2023/10/11 01:38:46;;;;;;;13.80;6.10;;;15.30;99.90;;;;;;5031397;28;20475;-47
2023/10/11 01:41:16;;;;;;;13.35;5.65;;;15.30;99.90;;;;;;5031200;28;20028;-45
2023/10/11 01:43:42;;;;;;;13.38;5.90;;;15.40;99.90;;;;;;5031884;28;20132;-47
2023/10/11 01:46:08;;;;;;;15.70;6.57;;;15.40;99.90;;;;;;5031881;28;20187;-46
2023/10/11 01:48:33;;;;;;;15.93;6.80;;;15.30;99.90;;;;;;5032297;28;20064;-47
2023/10/11 01:51:05;;;;;;;14.88;6.00;;;15.40;99.90;;;;;;5031883;28;20025;-45
2023/10/11 01:53:31;;;;;;;17.60;6.82;;;15.40;99.90;;;;;;5032401;28;20029;-45
2023/10/11 01:55:57;;;;;;;17.15;6.68;;;15.60;99.90;;;;;;5031694;28;20057;-56
2023/10/11 01:58:23;;;;;;;16.15;6.68;;;15.70;99.90;;;;;;5031829;28;20095;-48
2023/10/11 02:00:53;;;;;;;18.92;6.82;;;15.80;99.90;;;;;;5031915;28;20701;-45
2023/10/11 02:03:18;;;;;;;17.60;6.50;;;15.80;99.90;;;;;;5031690;28;20048;-47
2023/10/11 02:05:44;;;;;;;17.30;6.78;;;15.80;99.90;;;;;;5031733;28;20125;-44
2023/10/11 02:08:17;;;;;;;14.15;7.10;;;15.80;99.90;;;;;;5031807;28;20053;-45
2023/10/11 02:10:44;;;;;;;21.58;6.90;;;15.90;99.90;;;;;;5031749;28;20034;-45
2023/10/11 02:13:10;;;;;;;16.55;7.70;;;15.90;99.90;;;;;;5031614;28;20034;-45
2023/10/11 02:15:38;;;;;;;14.95;7.43;;;15.90;99.90;;;;;;5031692;28;20522;-49
2023/10/11 02:18:10;;;;;;;13.80;6.68;;;15.90;99.90;;;;;;5031504;28;20154;-44
2023/10/11 02:20:44;;;;;;;19.70;8.30;;;16.00;99.90;;;;;;5031653;28;20014;-49
2023/10/11 02:23:11;;;;;;;22.80;7.68;;;16.00;99.90;;;;;;5031545;28;20060;-48
2023/10/11 02:25:41;;;;;;;19.08;7.78;;;16.00;99.90;;;;;;5031528;28;20366;-55
2023/10/11 02:28:09;;;;;;;18.58;7.45;;;16.10;99.90;;;;;;5031420;28;20047;-50
2023/10/11 02:30:38;;;;;;;20.25;7.05;;;16.10;99.90;;;;;;5031168;28;20053;-46
2023/10/11 02:33:07;;;;;;;20.23;8.43;;;16.10;99.90;;;;;;5031357;28;20114;-53
2023/10/11 02:35:51;;;;;;;16.48;7.45;;;16.20;99.90;;;;;;5031588;28;20038;-47
2023/10/11 02:38:22;;;;;;;16.10;6.97;;;16.20;99.90;;;;;;5031207;28;20026;-50
2023/10/11 02:40:55;;;;;;;19.42;7.95;;;16.20;99.90;;;;;;5031296;28;20028;-47
2023/10/11 02:43:28;;;;;;;17.80;6.93;;;16.30;99.90;;;;;;5031174;28;20315;-45
2023/10/11 02:45:54;;;;;;;13.73;7.30;;;16.30;99.90;;;;;;5031216;28;20060;-46
2023/10/11 02:48:19;;;;;;;13.90;7.22;;;16.20;99.90;;;;;;5030905;28;20601;-47
2023/10/11 02:50:47;;;;;;;13.90;7.72;;;16.20;99.90;;;;;;5030080;28;20431;-49
2023/10/11 02:53:22;;;;;;;15.10;7.38;;;16.30;99.90;;;;;;5031045;28;20025;-47
2023/10/11 02:55:57;;;;;;;18.00;7.50;;;16.30;99.90;;;;;;5030840;28;20022;-46
2023/10/11 02:58:29;;;;;;;20.73;7.60;;;16.30;99.90;;;;;;5031034;28;20056;-45
2023/10/11 03:01:14;;;;;;;19.33;7.25;;;16.20;99.90;;;;;;5030768;28;20036;-48
2023/10/11 03:03:43;;;;;;;15.73;6.63;;;16.20;99.90;;;;;;5030575;28;20488;-48
2023/10/11 03:06:09;;;;;;;14.18;7.57;;;16.20;99.90;;;;;;5030863;28;20022;-44
2023/10/11 03:08:37;;;;;;;15.55;7.38;;;16.20;99.90;;;;;;5030856;28;20041;-51
2023/10/11 03:11:08;;;;;;;14.05;6.88;;;16.20;99.90;;;;;;5030646;28;20427;-45
2023/10/11 03:13:41;;;;;;;17.70;7.28;;;16.20;99.90;;;;;;5030428;28;20041;-51
2023/10/11 03:16:13;;;;;;;17.20;6.97;;;16.30;99.90;;;;;;5030574;28;20025;-49
2023/10/11 03:18:40;;;;;;;12.20;7.28;;;16.30;99.90;;;;;;5030637;28;20025;-45
2023/10/11 03:23:45;;;;;;;14.68;7.00;;;16.30;99.90;;;;;;5030842;28;20087;-49
2023/10/11 03:26:18;;;;;;;15.82;7.93;;;16.40;99.90;;;;;;5030087;28;20017;-53
2023/10/11 03:28:45;;;;;;;14.10;7.30;;;16.30;99.90;;;;;;5030437;28;20060;-51
2023/10/11 03:31:12;;;;;;;12.88;6.82;;;16.40;99.90;;;;;;5030164;28;20127;-46
2023/10/11 03:33:40;;;;;;;17.08;6.18;;;16.40;99.90;;;;;;5030893;28;20120;-44
2023/10/11 03:36:17;;;;;;;10.40;6.22;;;16.30;99.90;;;;;;5030560;28;20112;-47
2023/10/11 03:38:51;;;;;;;12.10;5.60;;;16.30;99.90;;;;;;5030654;28;20033;-53
2023/10/11 03:41:17;;;;;;;14.57;5.93;;;16.30;99.90;;;;;;5030254;28;20021;-51
2023/10/11 03:43:43;;;;;;;14.38;6.63;;;16.30;99.90;;;;;;5030414;28;20033;-44
2023/10/11 03:46:15;;;;;;;15.23;6.00;;;16.40;99.90;;;;;;5030239;28;20022;-46
2023/10/11 03:48:44;;;;;;;13.50;6.25;;;16.40;99.90;;;;;;5030001;28;20021;-44
2023/10/11 03:51:13;;;;;;;10.45;5.25;;;16.40;99.90;;;;;;5030466;28;20021;-45
2023/10/11 03:53:39;;;;;;;17.02;5.72;;;16.40;99.90;;;;;;5030168;28;20026;-44
2023/10/11 03:56:06;;;;;;;13.15;5.85;;;16.40;99.90;;;;;;5030196;28;20448;-45
2023/10/11 04:01:02;;;;;;;11.65;5.00;;;16.40;99.90;;;;;;5030367;28;20121;-45
2023/10/11 04:03:28;;;;;;;9.70;4.88;;;16.40;99.90;;;;;;5030208;28;20033;-44
2023/10/11 04:05:58;;;;;;;13.52;5.72;;;16.40;99.90;;;;;;5030171;28;20585;-44
2023/10/11 04:08:25;;;;;;;13.38;4.85;;;16.40;99.90;;;;;;5030304;28;20060;-44
2023/10/11 04:10:51;;;;;;;13.75;5.53;;;16.40;99.90;;;;;;5030185;28;20025;-44
2023/10/11 04:13:24;;;;;;;13.20;5.55;;;16.40;99.90;;;;;;5030224;28;20033;-50
2023/10/11 04:15:52;;;;;;;15.77;5.57;;;16.30;99.90;;;;;;5030140;28;20021;-49
2023/10/11 04:18:30;;;;;;;12.27;5.72;;;16.40;99.90;;;;;;5030086;28;20022;-55
2023/10/11 04:23:36;;;;;;;15.20;5.97;;;16.40;99.90;;;;;;5030308;28;20257;-48
2023/10/11 04:26:08;;;;;;;11.93;5.10;;;16.40;99.90;;;;;;5033844;28;20426;-46
2023/10/11 04:28:41;;;;;;;18.08;6.35;;;16.50;99.90;;;;;;5033842;28;20040;-50
2023/10/11 04:33:57;;;;;;;18.77;5.13;;;16.50;99.90;;;;;;5023580;28;20128;-50
2023/10/11 04:36:23;;;;;;;13.15;5.88;;;16.40;99.90;;;;;;5033836;28;20087;-49
2023/10/11 04:38:50;;;;;;;11.80;5.93;;;16.40;99.90;;;;;;5033840;28;20033;-44
2023/10/11 04:41:18;;;;;;;17.45;5.63;;;16.50;99.90;;;;;;5033543;28;20483;-48
2023/10/11 04:44:04;;;;;;;13.52;5.47;;;16.50;99.90;;;;;;5033605;28;20032;-44
2023/10/11 04:46:30;;;;;;;15.77;5.93;;;16.50;99.90;;;;;;5033054;28;20029;-44
2023/10/11 04:49:16;;;;;;;13.65;5.60;;;16.50;99.90;;;;;;5032296;28;20025;-45
2023/10/11 04:51:45;;;;;;;11.32;5.28;;;16.50;99.90;;;;;;5032790;28;20033;-45
2023/10/11 04:54:13;;;;;;;13.40;5.80;;;16.50;99.90;;;;;;5033234;28;20388;-56
2023/10/11 05:04:27;;;;;;;15.73;5.10;;;16.50;99.90;;;;;;5033155;28;20029;-46
2023/10/11 05:06:54;;;;;;;9.98;5.05;;;16.60;99.90;;;;;;5032565;28;20049;-48
2023/10/11 05:11:50;;;;;;;12.10;4.60;;;16.60;99.90;;;;;;5033077;28;20040;-52
2023/10/11 05:14:29;;;;;;;10.50;4.90;;;16.60;99.90;;;;;;5032575;28;20030;-52
2023/10/11 05:17:32;;;;;;;19.80;5.93;;;16.60;99.90;;;;;;5032498;28;20033;-45
2023/10/11 05:22:45;;;;;;;16.60;5.47;;;16.70;99.90;;;;;;5032967;28;20033;-54
2023/10/11 05:28:07;;;;;;;12.77;5.38;;;16.60;99.90;;;;;;5032435;28;20037;-54
2023/10/11 05:30:37;;;;;;;17.02;6.05;;;16.70;99.90;;;;;;5024071;28;20037;-49
2023/10/11 05:52:08;;;;;;;11.85;5.30;;;16.80;99.90;;;;;;5030273;28;20215;-57
2023/10/11 05:54:37;;;;;;;11.88;5.20;;;16.80;99.90;;;;;;5030195;28;20380;-46
2023/10/11 05:57:05;;;;;;;16.10;6.28;;;16.80;99.90;;;;;;5029930;28;20025;-51
2023/10/11 05:59:35;;;;;;;11.88;5.75;;;16.90;99.90;;;;;;5030218;28;20026;-46
2023/10/11 06:02:22;;;;;;;19.02;6.32;;;16.80;99.90;;;;;;5030463;28;20041;-45
2023/10/11 06:04:47;;;;;;;13.00;6.13;;;16.80;99.90;;;;;;5020443;28;20033;-48
2023/10/11 06:07:15;;;;;;;18.63;6.25;;;16.90;99.90;;;;;;5029972;28;20032;-53
2023/10/11 06:09:46;;;;;;;13.95;6.60;;;16.90;99.90;;;;;;5030252;28;20546;-45
2023/10/11 06:12:28;;;;;;;12.55;6.03;;;16.90;99.90;;;;;;5030698;28;20025;-48
2023/10/11 06:14:54;;;;;;;12.60;5.13;;;16.90;99.90;;;;;;5030554;28;20028;-47
2023/10/11 06:17:21;;;;;;;14.10;6.10;;;16.90;99.90;;;;;;5030583;28;20033;-59
2023/10/11 06:19:54;;;;;;;19.33;6.85;;;16.90;99.90;;;;;;5030847;28;20389;-51
2023/10/11 06:22:21;;;;;;;13.13;6.38;;;16.90;99.90;;;;;;5031436;28;20033;-52
2023/10/11 06:24:47;;;;;;;17.92;6.07;;;17.00;99.90;;;;;;5031868;28;20037;-52
2023/10/11 06:29:46;;;;;;;13.90;5.82;;;17.00;99.90;;;;;;5031372;28;20025;-45
2023/10/11 06:32:12;;;;;;;22.25;6.78;;;17.00;99.90;;;;;;5031687;28;20040;-45
2023/10/11 06:34:45;;;;;;;14.93;6.30;;;17.00;99.90;;;;;;5030860;28;20571;-48
2023/10/11 06:37:10;;;;;;;22.98;6.28;;;17.00;99.90;;;;;;5027523;28;20476;-47
2023/10/11 06:42:21;;;;;;;13.80;5.95;;;17.00;99.90;;;;;;5031200;28;20033;-49
2023/10/11 06:44:54;;;;;;;13.07;6.05;;;16.90;99.90;;;;;;5030378;28;20708;-43
2023/10/11 06:47:21;;;;;;;16.38;5.50;;;17.00;99.90;;;;;;5031812;28;20025;-54
2023/10/11 06:49:55;;;;;;;15.38;6.75;;;17.00;99.90;;;;;;5031193;28;20025;-50
2023/10/11 06:52:25;;;;;;;21.52;5.70;;;17.10;99.90;;;;;;5029936;28;20021;-52
2023/10/11 06:57:45;;;;;;;17.00;6.57;;;17.00;99.90;;;;;;5029040;28;20518;-45
2023/10/11 07:00:20;;;;;;;17.88;6.20;;;17.00;99.90;;;;;;5031089;28;20028;-52
2023/10/11 07:03:06;;;;;;;18.92;6.80;;;17.00;99.90;;;;;;5029382;28;20147;-55
2023/10/11 07:05:36;;;;;;;16.33;5.70;;;17.00;99.90;;;;;;5037176;28;20025;-47
2023/10/11 07:08:05;;;;;;;18.48;5.43;;;17.00;99.90;;;;;;5019321;28;20030;-52
2023/10/11 07:10:33;;;;;;;14.52;6.35;;;17.00;99.90;;;;;;5030720;28;20549;-51
2023/10/11 07:13:03;;;;;;;13.63;5.72;;;17.00;99.90;;;;;;5030578;28;20038;-45
2023/10/11 07:15:46;;;;;;;15.75;5.97;;;17.10;99.90;;;;;;5030752;28;20021;-50
2023/10/11 07:18:13;;;;;;;12.30;5.40;;;17.10;99.90;;;;;;5032639;28;20057;-47
2023/10/11 07:20:58;;;;;;;13.13;5.97;;;17.00;99.90;;;;;;5030379;28;20030;-56
2023/10/11 07:23:34;;;;;;;17.20;5.57;;;17.10;99.90;;;;;;5029109;28;20037;-42
2023/10/11 07:26:23;;;;;;;19.50;6.22;;;17.10;99.90;;;;;;5024013;28;20120;-47
2023/10/11 07:28:51;;;;;;;11.55;5.30;;;17.10;99.90;;;;;;5029941;28;20025;-53
2023/10/11 07:31:21;;;;;;;11.45;4.55;;;17.10;99.90;;;;;;5024982;28;20049;-54
2023/10/11 07:33:50;;;;;;;10.80;4.72;;;17.20;99.90;;;;;;5029552;28;20051;-43
2023/10/11 07:36:19;;;;;;;11.52;5.18;;;17.20;99.90;;;;;;5030546;28;20337;-46
2023/10/11 07:38:54;;;;;;;14.10;6.07;;;17.30;99.90;;;;;;5030489;28;20064;-46
2023/10/11 07:41:22;;;;;;;14.93;6.20;;;17.30;99.90;;;;;;5030561;28;20040;-43
2023/10/11 07:43:47;;;;;;;10.05;5.28;;;17.30;99.90;;;;;;5030392;28;20595;-49
2023/10/11 07:46:13;;;;;;;16.27;6.40;;;17.30;99.90;;;;;;5030127;28;20104;-44
2023/10/11 07:48:40;;;;;;;17.08;6.22;;;17.40;99.90;;;;;;5030024;28;20495;-53
2023/10/11 07:51:12;;;;;;;15.60;5.97;;;17.40;99.90;;;;;;5029537;28;20412;-48
2023/10/11 07:53:43;;;;;;;22.05;7.22;;;17.40;99.90;;;;;;5030024;28;20033;-49
2023/10/11 07:56:09;;;;;;;17.15;7.85;;;17.40;99.90;;;;;;5030133;28;20538;-45
2023/10/11 07:58:43;;;;;;;19.17;7.90;;;17.40;99.90;;;;;;5031964;28;20033;-50
2023/10/11 08:01:24;;;;;;;17.00;7.25;;;17.40;99.90;;;;;;5034496;28;20029;-45
2023/10/11 08:03:51;;;;;;;17.83;7.55;;;17.30;99.90;;;;;;5033689;28;20080;-50
2023/10/11 08:06:23;;;;;;;17.35;7.40;;;17.30;99.90;;;;;;5032529;28;20033;-46
2023/10/11 08:08:50;;;;;;;15.30;7.85;;;17.30;99.90;;;;;;5032192;28;20488;-44
2023/10/11 08:11:19;;;;;;;18.00;7.50;;;17.40;99.90;;;;;;5032398;28;20477;-44
2023/10/11 08:13:48;;;;;;;18.08;8.45;;;17.40;99.90;;;;;;5032335;28;20063;-45
2023/10/11 08:16:17;;;;;;;17.75;7.82;;;17.40;99.90;;;;;;5032012;28;20025;-54
2023/10/11 08:18:48;;;;;;;18.15;8.30;;;17.40;99.90;;;;;;5032943;28;20029;-46
2023/10/11 08:21:15;;;;;;;15.57;7.18;;;17.40;99.90;;;;;;5033560;28;20491;-48
2023/10/11 08:23:44;;;;;;;16.70;7.93;;;17.30;99.90;;;;;;5033278;28;20480;-49
2023/10/11 08:26:14;;;;;;;15.13;7.50;;;17.30;99.90;;;;;;5027617;28;20025;-47
2023/10/11 08:28:48;;;;;;;14.48;6.55;;;17.30;99.90;;;;;;5032331;28;20071;-46
2023/10/11 08:31:35;;;;;;;15.70;7.32;;;17.30;99.90;;;;;;5033724;28;20183;-46
2023/10/11 08:34:03;;;;;;;15.57;7.22;;;17.20;99.90;;;;;;5033183;28;20036;-46
2023/10/11 08:36:33;;;;;;;15.63;7.55;;;17.30;99.90;;;;;;5033516;28;20041;-45
2023/10/11 08:39:13;;;;;;;12.70;6.57;;;17.20;99.90;;;;;;5033663;28;20041;-43
2023/10/11 08:41:43;;;;;;;16.23;6.45;;;17.20;99.90;;;;;;5033377;28;20018;-52
2023/10/11 08:44:18;;;;;;;14.38;6.75;;;17.10;99.90;;;;;;5033823;28;20038;-51
2023/10/11 08:46:48;;;;;;;20.95;6.07;;;17.20;99.90;;;;;;5032855;28;20079;-47
2023/10/11 08:49:17;;;;;;;13.25;5.88;;;17.20;99.90;;;;;;5033627;28;20395;-48
2023/10/11 08:51:43;;;;;;;14.57;6.20;;;17.20;99.90;;;;;;5033321;28;20033;-48
2023/10/11 08:54:16;;;;;;;12.73;5.38;;;17.20;99.90;;;;;;5033487;28;20033;-49
2023/10/11 08:56:54;;;;;;;10.23;5.05;;;17.20;99.90;;;;;;5032286;28;20025;-48
2023/10/11 08:59:27;;;;;;;8.50;5.13;;;17.20;99.90;;;;;;5033165;28;20021;-47
2023/10/11 09:01:53;;;;;;;15.65;5.25;;;17.20;99.90;;;;;;5032635;28;20523;-54
2023/10/11 09:04:26;;;;;;;14.57;4.85;;;17.20;99.90;;;;;;5032758;28;20478;-56
2023/10/11 09:06:57;;;;;;;9.77;4.25;;;17.20;99.90;;;;;;5032969;28;20495;-52
2023/10/11 09:09:39;;;;;;;10.32;5.07;;;17.20;99.90;;;;;;5032467;28;20025;-47
2023/10/11 09:12:23;;;;;;;13.48;5.25;;;17.20;99.90;;;;;;5032972;28;20021;-51
2023/10/11 09:15:16;;;;;;;12.77;5.50;;;17.20;99.90;;;;;;5032901;28;20053;-53
2023/10/11 09:17:41;;;;;;;15.55;5.97;;;17.20;99.90;;;;;;5031112;28;20077;-48
2023/10/11 09:20:23;;;;;;;14.98;5.45;;;17.20;99.90;;;;;;5033024;28;20099;-48
2023/10/11 09:22:53;;;;;;;13.77;5.57;;;17.20;99.90;;;;;;5032789;28;20083;-50
2023/10/11 09:25:23;;;;;;;17.80;5.68;;;17.20;99.90;;;;;;5033137;28;20029;-49
2023/10/11 09:27:50;;;;;;;10.02;5.10;;;17.20;99.90;;;;;;5032766;28;20480;-49
2023/10/11 09:30:20;;;;;;;15.13;4.95;;;17.20;99.90;;;;;;5032738;28;20054;-52
2023/10/11 09:32:51;;;;;;;16.63;5.88;;;17.10;99.90;;;;;;5032926;28;20034;-48
2023/10/11 09:35:26;;;;;;;16.90;6.25;;;17.20;99.90;;;;;;5032765;28;20021;-47
2023/10/11 09:37:56;;;;;;;9.07;4.55;;;17.20;99.90;;;;;;5032607;28;20028;-46
2023/10/11 09:40:34;;;;;;;13.88;4.55;;;17.20;99.90;;;;;;5032626;28;20041;-48
2023/10/11 09:43:04;;;;;;;9.38;4.75;;;17.20;99.90;;;;;;5032445;28;20120;-50
2023/10/11 09:45:41;;;;;;;12.30;5.45;;;17.30;99.90;;;;;;5032720;28;20026;-51
2023/10/11 09:48:09;;;;;;;17.73;5.88;;;17.30;99.90;;;;;;5032433;28;20036;-53
2023/10/11 09:50:40;;;;;;;13.52;6.05;;;17.30;99.90;;;;;;5032618;28;20018;-46
2023/10/11 09:53:16;;;;;;;17.50;6.93;;;17.40;99.90;;;;;;5032365;28;20373;-46
2023/10/11 09:56:00;;;;;;;13.18;6.82;;;17.40;99.90;;;;;;5032419;28;20017;-49
2023/10/11 09:58:37;;;;;;;15.95;6.10;;;17.50;99.90;;;;;;5032171;28;20045;-46
2023/10/11 10:01:11;;;;;;;11.00;6.40;;;17.50;99.90;;;;;;5032457;28;20068;-55
2023/10/11 10:03:44;;;;;;;23.10;6.90;;;17.60;99.90;;;;;;5032283;28;20033;-56
2023/10/11 10:06:21;;;;;;;23.25;7.30;;;17.60;99.90;;;;;;5032296;28;20691;-54
2023/10/11 10:09:23;;;;;;;17.17;5.80;;;17.70;99.90;;;;;;5031848;28;20439;-47
2023/10/11 10:12:05;;;;;;;17.65;6.35;;;17.70;99.90;;;;;;5032226;28;20037;-54
2023/10/11 10:14:35;;;;;;;17.10;6.55;;;17.80;99.90;;;;;;5031792;28;20048;-52
2023/10/11 10:17:15;;;;;;;11.48;5.85;;;17.80;99.90;;;;;;5031148;28;20029;-49
2023/10/11 10:19:50;;;;;;;13.15;5.93;;;17.90;99.90;;;;;;5031708;28;20048;-52
2023/10/11 10:22:21;;;;;;;15.70;5.35;;;18.00;99.90;;;;;;5030218;28;20395;-54
2023/10/11 10:24:50;;;;;;;20.60;6.30;;;18.00;99.90;;;;;;5031499;28;20022;-51
2023/10/11 10:27:34;;;;;;;16.52;6.47;;;18.00;99.90;;;;;;5031143;28;20051;-53
2023/10/11 10:30:04;;;;;;;16.83;6.30;;;18.10;99.90;;;;;;5031096;28;20033;-48
2023/10/11 10:32:30;;;;;;;15.80;6.10;;;18.10;99.90;;;;;;5031206;28;20408;-51
2023/10/11 10:35:19;;;;;;;10.85;5.25;;;18.10;99.90;;;;;;5030713;28;20055;-55
2023/10/11 10:37:47;;;;;;;13.07;5.13;;;18.10;99.90;;;;;;5025616;28;20117;-56
2023/10/11 10:40:27;;;;;;;16.70;5.32;;;18.00;99.90;;;;;;5030999;28;20033;-56
2023/10/11 10:43:08;;;;;;;14.88;5.28;;;18.10;99.90;;;;;;5031055;28;20132;-55
2023/10/11 10:45:35;;;;;;;12.50;5.35;;;18.10;99.90;;;;;;5031151;28;20025;-54
2023/10/11 10:48:15;;;;;;;19.05;5.35;;;18.10;99.90;;;;;;5030819;28;20129;-47
2023/10/11 10:51:03;;;;;;;14.60;4.82;;;18.10;99.90;;;;;;5030756;28;20017;-47
2023/10/11 10:53:44;;;;;;;16.73;5.50;;;18.20;99.90;;;;;;5030862;28;20029;-47
2023/10/11 10:56:26;;;;;;;15.45;5.03;;;18.30;99.90;;;;;;5030806;28;20030;-50
2023/10/11 10:59:07;;;;;;;10.95;5.35;;;18.40;99.90;;;;;;5030592;28;20719;-48
2023/10/11 11:01:36;;;;;;;12.45;4.55;;;18.50;99.90;;;;;;5030513;28;20064;-53
2023/10/11 11:04:08;;;;;;;14.13;4.65;;;18.60;99.90;;;;;;5030631;28;20044;-46
2023/10/11 11:06:44;;;;;;;20.52;4.93;;;18.70;99.90;;;;;;5030379;28;20114;-49
2023/10/11 11:09:25;;;;;;;13.55;4.93;;;18.60;99.90;;;;;;5030551;28;20123;-54
2023/10/11 11:11:58;;;;;;;10.30;4.50;;;18.70;99.90;;;;;;5030555;28;20116;-46
2023/10/11 11:14:24;;;;;;;15.30;4.45;;;18.80;99.90;;;;;;5030084;28;20036;-52
2023/10/11 11:16:58;;;;;;;10.77;3.92;;;18.80;99.90;;;;;;5028944;28;20403;-50
2023/10/11 11:19:26;;;;;;;7.97;3.67;;;18.90;99.90;;;;;;5029975;28;20021;-49
2023/10/11 11:22:11;;;;;;;11.23;4.10;;;18.80;99.90;;;;;;5030406;28;20033;-50
2023/10/11 11:24:38;;;;;;;12.48;4.20;;;18.70;99.90;;;;;;5029872;28;20021;-52
2023/10/11 11:27:15;;;;;;;13.02;3.50;;;18.80;99.90;;;;;;5029874;28;20056;-50
2023/10/11 11:29:40;;;;;;;10.38;3.40;;;18.80;99.90;;;;;;5030069;28;20018;-50
2023/10/11 11:32:16;;;;;;;11.15;4.20;;;18.90;99.90;;;;;;5029899;28;20127;-53
2023/10/11 11:35:10;;;;;;;13.10;3.95;;;18.90;99.90;;;;;;5030041;28;20452;-46
2023/10/11 11:37:39;;;;;;;9.73;3.42;;;18.80;99.90;;;;;;5030140;28;20037;-51
2023/10/11 11:40:26;;;;;;;8.80;3.45;;;18.80;99.90;;;;;;5030049;28;20025;-53
2023/10/11 11:42:53;;;;;;;10.35;4.00;;;18.90;99.90;;;;;;5029797;28;20480;-52
2023/10/11 11:45:20;;;;;;;10.60;3.70;;;19.30;99.90;;;;;;5030065;28;20148;-48
2023/10/11 11:47:58;;;;;;;8.43;3.13;;;19.70;99.90;;;;;;5028620;28;20061;-46
2023/10/11 11:50:24;;;;;;;7.35;2.90;;;20.00;99.90;;;;;;5029091;28;20029;-51
2023/10/11 11:52:50;;;;;;;5.85;3.13;;;20.00;99.90;;;;;;5029513;28;20029;-54
2023/10/11 11:55:20;;;;;;;8.10;3.17;;;19.80;99.90;;;;;;5027842;28;20037;-50
2023/10/11 11:57:47;;;;;;;6.40;2.90;;;19.70;99.90;;;;;;5028970;28;20041;-47
2023/10/11 12:02:52;;;;;;;8.85;3.10;;;19.60;99.90;;;;;;5021694;28;20053;-47
2023/10/11 12:05:18;;;;;;;5.57;2.85;;;19.60;99.90;;;;;;5025460;28;20435;-53
2023/10/11 12:07:44;;;;;;;7.25;3.13;;;19.90;99.90;;;;;;5029425;28;20057;-56
2023/10/11 12:10:25;;;;;;;8.70;3.55;;;20.40;99.90;;;;;;5029793;28;20053;-49
2023/10/11 12:13:01;;;;;;;6.80;3.58;;;20.70;99.90;;;;;;5029365;28;20036;-55
2023/10/11 12:15:28;;;;;;;11.35;4.03;;;20.70;99.90;;;;;;5029490;28;20030;-56
2023/10/11 12:17:54;;;;;;;9.88;3.97;;;20.40;99.90;;;;;;5029083;28;20391;-53
2023/10/11 12:20:22;;;;;;;9.10;3.65;;;20.20;99.90;;;;;;5029741;28;20021;-56
2023/10/11 12:22:48;;;;;;;8.43;3.90;;;20.00;99.90;;;;;;5029446;28;20087;-54
2023/10/11 12:25:14;;;;;;;7.07;3.53;;;19.90;99.90;;;;;;5029504;28;20029;-55
2023/10/11 12:27:40;;;;;;;8.95;3.28;;;19.80;99.90;;;;;;5029032;28;20383;-51
2023/10/11 12:30:19;;;;;;;8.98;4.28;;;19.70;99.90;;;;;;5029112;28;20033;-53
2023/10/11 12:32:45;;;;;;;9.55;3.90;;;19.70;99.90;;;;;;5017854;28;20038;-56
2023/10/11 12:35:11;;;;;;;8.57;4.53;;;19.70;99.90;;;;;;5014280;28;20017;-53
2023/10/11 12:37:36;;;;;;;9.85;4.20;;;19.70;99.90;;;;;;5026448;28;20388;-55
2023/10/11 12:40:11;;;;;;;14.18;5.03;;;19.60;99.90;;;;;;5022054;28;20029;-54
2023/10/11 12:42:37;;;;;;;9.02;4.38;;;19.50;99.90;;;;;;5027730;28;20037;-49
2023/10/11 12:45:07;;;;;;;11.23;4.80;;;19.50;99.90;;;;;;5028479;28;20034;-51
2023/10/11 12:47:34;;;;;;;9.15;4.93;;;19.50;99.90;;;;;;5032579;28;20056;-56
2023/10/11 12:50:00;;;;;;;14.70;5.38;;;19.40;99.90;;;;;;5032906;28;20049;-48
2023/10/11 12:52:30;;;;;;;11.73;5.22;;;19.40;99.90;;;;;;5032821;28;20136;-55
2023/10/11 12:55:00;;;;;;;10.45;5.43;;;19.30;99.90;;;;;;5032520;28;20555;-54
2023/10/11 12:57:28;;;;;;;13.50;6.00;;;19.20;99.90;;;;;;5032976;28;20029;-50
2023/10/11 12:59:54;;;;;;;12.60;5.95;;;19.00;99.90;;;;;;5033383;28;20018;-52
2023/10/11 13:02:22;;;;;;;14.07;5.78;;;19.10;99.90;;;;;;5032849;28;20041;-53
2023/10/11 13:04:49;;;;;;;12.85;6.07;;;19.00;99.90;;;;;;5032998;28;20373;-46
2023/10/11 13:07:14;;;;;;;9.13;5.40;;;19.00;99.90;;;;;;5033161;28;20477;-56
2023/10/11 13:09:40;;;;;;;11.38;5.80;;;19.00;99.90;;;;;;5032997;28;20070;-50
2023/10/11 13:12:07;;;;;;;10.65;5.47;;;19.00;99.90;;;;;;5032880;28;20028;-50
2023/10/11 13:14:35;;;;;;;10.98;5.82;;;18.90;99.90;;;;;;5032980;28;20466;-47
2023/10/11 13:17:05;;;;;;;11.82;5.80;;;18.90;99.90;;;;;;5032681;28;20034;-49
2023/10/11 13:19:31;;;;;;;9.15;5.90;;;18.90;99.90;;;;;;5032999;28;20480;-56
2023/10/11 13:21:57;;;;;;;16.75;5.95;;;18.90;99.90;;;;;;5032862;28;20034;-48
2023/10/11 13:24:26;;;;;;;10.90;6.35;;;19.00;99.90;;;;;;5031910;28;20036;-44
2023/10/11 13:26:54;;;;;;;10.23;6.20;;;19.10;99.90;;;;;;5030987;28;20037;-55
2023/10/11 13:29:21;;;;;;;11.35;5.75;;;19.10;99.90;;;;;;5032880;28;20095;-49
2023/10/11 13:31:54;;;;;;;13.07;6.43;;;19.40;99.90;;;;;;5032251;28;20136;-53
2023/10/11 13:34:33;;;;;;;9.13;6.00;;;19.50;99.90;;;;;;5032786;28;20091;-46
2023/10/11 13:37:00;;;;;;;11.17;5.40;;;19.60;99.90;;;;;;5032920;28;20079;-46
2023/10/11 13:39:26;;;;;;;11.88;6.05;;;19.60;99.90;;;;;;5032555;28;20025;-46
2023/10/11 13:42:09;;;;;;;11.98;5.90;;;19.70;99.90;;;;;;5032833;28;20060;-50
2023/10/11 13:44:37;;;;;;;12.93;5.43;;;19.80;99.90;;;;;;5032540;28;20057;-44
2023/10/11 13:47:04;;;;;;;8.55;5.90;;;19.60;99.90;;;;;;5032572;28;20018;-54
2023/10/11 13:49:33;;;;;;;10.50;6.93;;;19.40;99.90;;;;;;5032475;28;20037;-48
2023/10/11 13:52:01;;;;;;;11.00;5.45;;;19.30;99.90;;;;;;5032108;28;20029;-50
2023/10/11 13:54:42;;;;;;;11.23;5.55;;;19.20;99.90;;;;;;5032622;28;20033;-49
2023/10/11 13:57:10;;;;;;;14.70;6.18;;;19.10;99.90;;;;;;5032111;28;20377;-54